NA73 weather

Welstad Farms Airstrip
Upham, North Dakota, United States

Public forecast

Using degrees Fahrenheit for public forecast. Weather courtesy of forecast.io.

Closest aviation weather report (METAR) to Welstad Farms Airstrip

Closest report is Minot Air Force Base, 16.8 nm (31.1 km) WSW. Retrieved 2020/08/04 02:56 UTC (7 minutes ago):

KMIB 040256Z AUTO 14006KT 10SM CLR 16/12 A3008 RMK AO2 SLP190 T01590115 50002

Closest aviation forecast (TAF) to Welstad Farms Airstrip

Closest forecast is Minot Air Force Base, 16.8 nm (31.1 km) WSW. Retrieved 2020-08-04 01:03 UTC (2 hours ago):

TAF KMIB 040100Z 0401/0507 14009KT 9999 SKC QNH3001INS BECMG 0417/0418 VRB06KT 9999 FEW100 QNH2999INS BECMG 0420/0421 08012KT 9000 -RA BKN050 QNH2997INS TX21/0417Z TN12/0411Z